Time;durP1;ratioP1;P1;durP2;ratioP2;P2;SDS_P1;SDS_P2;PMS_P1;PMS_P2;Temp;Humidity;BMP_temperature;BMP_pressure;BME280_temperature;BME280_humidity;BME280_pressure;Samples;Min_cycle;Max_cycle;Signal;HPM_P1;HPM_P2
2024/02/10 00:00:19;;;;;;;17.00;11.30;;;11.10;35.50;;;;;;5068945;28;20522;-83
2024/02/10 00:02:46;;;;;;;23.53;12.77;;;11.00;41.40;;;;;;5076414;28;20432;-83
2024/02/10 00:05:15;;;;;;;18.10;10.37;;;11.00;50.00;;;;;;5063921;28;20431;-85
2024/02/10 00:07:52;;;;;;;15.90;10.40;;;11.00;53.90;;;;;;5066723;28;20469;-85
2024/02/10 00:10:24;;;;;;;20.30;12.00;;;11.00;57.60;;;;;;5064183;28;20715;-84
2024/02/10 00:12:50;;;;;;;17.83;12.53;;;11.00;59.70;;;;;;5062954;28;20446;-85
2024/02/10 00:15:17;;;;;;;17.20;12.60;;;10.90;62.90;;;;;;5060706;28;20452;-85
2024/02/10 00:17:42;;;;;;;20.13;11.97;;;10.90;66.60;;;;;;5062363;28;20478;-83
2024/02/10 00:20:15;;;;;;;17.27;11.83;;;11.00;70.30;;;;;;5066622;28;20533;-81
2024/02/10 00:22:43;;;;;;;15.93;10.83;;;10.90;73.70;;;;;;5068759;28;20185;-86
2024/02/10 00:25:10;;;;;;;17.87;11.00;;;10.90;74.60;;;;;;5068410;28;20435;-84
2024/02/10 00:27:37;;;;;;;43.97;19.03;;;10.90;78.70;;;;;;5067823;28;21002;-82
2024/02/10 00:30:04;;;;;;;16.27;11.30;;;10.90;81.40;;;;;;5065232;28;20971;-84
2024/02/10 00:32:29;;;;;;;18.57;11.73;;;10.90;89.00;;;;;;5068329;28;20438;-84
2024/02/10 00:34:55;;;;;;;19.10;10.80;;;10.90;90.40;;;;;;5070578;28;20444;-84
2024/02/10 00:37:21;;;;;;;18.03;11.30;;;10.90;91.30;;;;;;5062979;28;20297;-83
2024/02/10 00:39:46;;;;;;;16.45;12.13;;;10.90;91.90;;;;;;5060762;28;20441;-85
2024/02/10 00:42:13;;;;;;;96.87;37.40;;;11.00;92.00;;;;;;5057299;28;20178;-85
2024/02/10 00:44:40;;;;;;;20.67;11.97;;;11.10;88.80;;;;;;5056621;28;20282;-85
2024/02/10 00:47:09;;;;;;;68.00;28.07;;;11.10;86.40;;;;;;5062092;28;20866;-85
2024/02/10 00:49:35;;;;;;;16.73;10.33;;;11.20;86.00;;;;;;5057323;28;20438;-85
2024/02/10 00:52:00;;;;;;;17.63;11.73;;;11.20;81.40;;;;;;5061991;28;20478;-85
2024/02/10 00:54:29;;;;;;;25.53;14.00;;;11.20;82.40;;;;;;5063299;28;20186;-84
2024/02/10 00:56:56;;;;;;;23.07;9.37;;;11.30;75.80;;;;;;5060712;28;20222;-83
2024/02/10 00:59:22;;;;;;;11.13;9.23;;;11.30;68.30;;;;;;5058306;28;20519;-85
2024/02/10 01:01:51;;;;;;;23.20;12.90;;;11.30;66.70;;;;;;5061158;28;20436;-82
2024/02/10 01:04:19;;;;;;;54.87;21.23;;;11.30;68.20;;;;;;5067994;28;20450;-82
2024/02/10 01:06:47;;;;;;;32.93;16.93;;;11.30;71.50;;;;;;5065301;28;20466;-83
2024/02/10 01:09:13;;;;;;;15.63;8.50;;;11.30;68.90;;;;;;5063963;28;21024;-86
2024/02/10 01:11:43;;;;;;;14.40;8.00;;;11.30;66.60;;;;;;5061477;28;20441;-85
2024/02/10 01:14:12;;;;;;;48.80;21.07;;;11.30;62.10;;;;;;5057519;28;20459;-84
2024/02/10 01:16:43;;;;;;;25.57;13.87;;;11.30;64.70;;;;;;5060948;28;20431;-86
2024/02/10 01:19:09;;;;;;;15.23;9.00;;;11.20;61.10;;;;;;5061854;28;20458;-84
2024/02/10 01:21:38;;;;;;;13.40;8.20;;;11.20;58.80;;;;;;5066154;28;20725;-83
2024/02/10 01:24:05;;;;;;;16.57;9.90;;;11.20;60.70;;;;;;5063953;28;20423;-85
2024/02/10 01:26:30;;;;;;;17.70;9.40;;;11.20;60.10;;;;;;5056595;28;20604;-84
2024/02/10 01:28:56;;;;;;;15.40;9.07;;;11.10;62.40;;;;;;5056750;28;20597;-83
2024/02/10 01:31:24;;;;;;;13.20;8.43;;;11.10;64.60;;;;;;5059165;28;20197;-83
2024/02/10 01:33:51;;;;;;;16.67;8.77;;;11.10;63.80;;;;;;5060604;28;20925;-83
2024/02/10 01:36:19;;;;;;;17.13;8.97;;;11.10;63.50;;;;;;5059453;28;20463;-84
2024/02/10 01:38:46;;;;;;;14.13;8.47;;;11.10;64.20;;;;;;5061362;28;20479;-84
2024/02/10 01:41:13;;;;;;;14.70;9.13;;;11.00;64.70;;;;;;5057636;28;20438;-87
2024/02/10 01:43:41;;;;;;;12.90;8.50;;;11.10;68.80;;;;;;5052553;28;20917;-87
2024/02/10 01:46:09;;;;;;;39.43;17.63;;;11.10;67.30;;;;;;5054502;28;20435;-88
2024/02/10 01:48:34;;;;;;;20.50;11.07;;;11.10;68.90;;;;;;5060446;28;20927;-87
2024/02/10 01:51:00;;;;;;;12.97;9.03;;;11.10;67.20;;;;;;5056258;28;20439;-87
2024/02/10 01:53:27;;;;;;;11.37;7.90;;;11.10;65.70;;;;;;5060579;28;20197;-88
2024/02/10 01:55:52;;;;;;;16.87;9.50;;;11.10;62.10;;;;;;5063878;28;20725;-87
2024/02/10 01:58:22;;;;;;;29.37;18.70;;;11.10;56.70;;;;;;5052113;28;20478;-87
2024/02/10 02:00:48;;;;;;;39.67;21.00;;;11.10;59.10;;;;;;5056969;28;20650;-87
2024/02/10 02:03:14;;;;;;;12.83;9.17;;;11.20;56.20;;;;;;5056831;28;20439;-86
2024/02/10 02:05:41;;;;;;;18.03;11.40;;;11.20;52.00;;;;;;5059666;28;20433;-87
2024/02/10 02:08:08;;;;;;;12.60;10.00;;;11.20;52.00;;;;;;5065585;28;20569;-87
2024/02/10 02:10:34;;;;;;;11.43;9.80;;;11.20;52.80;;;;;;5059806;28;20478;-88
2024/02/10 02:13:00;;;;;;;12.10;9.43;;;11.30;51.10;;;;;;5059758;28;20481;-86
2024/02/10 02:15:27;;;;;;;12.00;8.43;;;11.30;45.30;;;;;;5056818;28;20478;-86
2024/02/10 02:17:55;;;;;;;8.47;7.17;;;11.30;40.10;;;;;;5055574;28;20483;-86
2024/02/10 02:20:22;;;;;;;10.73;7.73;;;11.30;34.40;;;;;;5054879;28;20438;-87
2024/02/10 02:22:54;;;;;;;10.00;6.97;;;11.20;27.20;;;;;;5055122;28;20431;-86
2024/02/10 02:25:21;;;;;;;11.30;7.90;;;11.10;30.00;;;;;;5061718;28;20470;-87
2024/02/10 02:27:47;;;;;;;12.50;7.60;;;11.10;32.50;;;;;;5053773;28;20474;-87
2024/02/10 02:30:14;;;;;;;12.03;7.60;;;11.00;30.80;;;;;;5063982;28;20962;-87
2024/02/10 02:32:40;;;;;;;9.53;6.47;;;11.00;30.70;;;;;;5055709;28;20474;-86
2024/02/10 02:35:09;;;;;;;7.90;5.63;;;11.00;26.30;;;;;;5053035;28;20952;-87
2024/02/10 02:37:43;;;;;;;14.93;6.43;;;10.90;25.60;;;;;;5058151;28;20261;-87
2024/02/10 02:40:09;;;;;;;11.50;6.67;;;10.90;26.10;;;;;;5053076;28;20443;-87
2024/02/10 02:42:35;;;;;;;8.40;5.93;;;10.90;22.10;;;;;;5058965;28;20434;-85
2024/02/10 02:45:10;;;;;;;9.60;5.70;;;10.90;20.80;;;;;;5057153;28;20518;-87
2024/02/10 02:47:36;;;;;;;8.50;5.80;;;10.80;19.20;;;;;;5055430;28;20826;-87
2024/02/10 02:50:08;;;;;;;7.10;5.23;;;10.80;17.00;;;;;;5055485;28;20527;-87
2024/02/10 02:52:35;;;;;;;5.50;4.83;;;10.80;15.60;;;;;;5051791;28;22024;-86
2024/02/10 02:55:01;;;;;;;9.10;5.23;;;10.80;15.40;;;;;;5053244;28;20435;-84
2024/02/10 02:57:28;;;;;;;7.50;5.77;;;10.70;15.40;;;;;;5055800;28;21219;-85
2024/02/10 02:59:54;;;;;;;11.37;7.00;;;10.70;15.00;;;;;;5054299;28;20177;-85
2024/02/10 03:02:20;;;;;;;9.17;6.23;;;10.70;13.90;;;;;;5068283;28;20447;-85
2024/02/10 03:04:45;;;;;;;13.13;6.33;;;10.70;11.90;;;;;;5056607;28;20185;-86
2024/02/10 03:07:18;;;;;;;6.83;5.60;;;10.60;9.80;;;;;;5063079;28;20223;-86
2024/02/10 03:09:44;;;;;;;6.80;5.30;;;10.60;8.10;;;;;;5063247;28;20181;-86
2024/02/10 03:12:13;;;;;;;7.50;5.60;;;10.50;9.10;;;;;;5060269;28;20928;-86
2024/02/10 03:14:42;;;;;;;7.83;4.57;;;10.50;8.60;;;;;;5058216;28;20447;-86
2024/02/10 03:17:12;;;;;;;8.03;5.53;;;10.50;6.90;;;;;;5059734;28;20539;-87
2024/02/10 03:19:38;;;;;;;8.00;5.40;;;10.40;4.90;;;;;;5058352;28;20944;-86
2024/02/10 03:22:07;;;;;;;15.23;6.80;;;10.30;7.60;;;;;;5058420;28;20446;-87
2024/02/10 03:24:33;;;;;;;7.03;5.50;;;10.30;9.40;;;;;;5055043;28;20796;-86
2024/02/10 03:27:00;;;;;;;8.57;6.83;;;10.20;8.80;;;;;;5052426;28;20455;-86
2024/02/10 03:29:26;;;;;;;8.87;5.53;;;10.20;9.70;;;;;;5057833;28;20496;-86
2024/02/10 03:31:52;;;;;;;7.00;5.33;;;10.10;10.10;;;;;;5056053;28;20443;-86
2024/02/10 03:34:18;;;;;;;6.07;5.10;;;10.10;11.00;;;;;;5052480;28;20961;-86
2024/02/10 03:36:47;;;;;;;7.80;5.23;;;10.10;14.00;;;;;;5054556;28;20287;-85
2024/02/10 03:39:13;;;;;;;6.90;4.90;;;10.00;15.50;;;;;;5059521;28;20200;-87
2024/02/10 03:41:39;;;;;;;7.33;4.77;;;10.00;14.30;;;;;;5060477;28;20444;-87
2024/02/10 03:44:04;;;;;;;5.73;4.20;;;10.00;13.70;;;;;;5062991;28;20180;-86
2024/02/10 03:46:32;;;;;;;11.03;4.70;;;10.00;12.50;;;;;;5058143;28;20188;-85
2024/02/10 03:49:01;;;;;;;5.20;4.57;;;10.00;12.60;;;;;;5059701;28;20212;-86
2024/02/10 03:51:29;;;;;;;7.97;4.90;;;9.90;13.70;;;;;;5064714;28;20956;-86
2024/02/10 03:53:55;;;;;;;10.33;5.37;;;9.90;12.90;;;;;;5061247;28;20504;-87
2024/02/10 03:56:23;;;;;;;8.03;5.27;;;9.80;11.80;;;;;;5063625;28;20499;-86
2024/02/10 03:58:50;;;;;;;7.33;5.10;;;9.70;13.80;;;;;;5058041;28;20498;-86
2024/02/10 04:01:16;;;;;;;7.20;5.10;;;9.70;17.60;;;;;;5053088;28;20498;-86
2024/02/10 04:03:45;;;;;;;12.57;6.37;;;9.60;18.90;;;;;;5054491;28;20497;-86
2024/02/10 04:06:18;;;;;;;7.60;5.43;;;9.60;18.40;;;;;;5054001;28;20458;-86
2024/02/10 04:08:47;;;;;;;7.70;5.93;;;9.60;16.40;;;;;;5054450;28;20515;-86
2024/02/10 04:11:14;;;;;;;5.80;5.20;;;9.60;11.30;;;;;;5057935;28;20443;-86
2024/02/10 04:13:43;;;;;;;9.87;5.63;;;9.50;11.70;;;;;;5059660;28;20492;-86
2024/02/10 04:16:13;;;;;;;7.80;6.33;;;9.40;17.30;;;;;;5055833;28;20521;-87
2024/02/10 04:18:39;;;;;;;7.23;5.97;;;9.30;21.30;;;;;;5059811;28;20995;-86
2024/02/10 04:21:06;;;;;;;12.83;8.03;;;9.30;26.80;;;;;;5058174;28;20430;-85
2024/02/10 04:23:35;;;;;;;9.73;6.23;;;9.20;31.50;;;;;;5063107;28;20466;-87
2024/02/10 04:26:02;;;;;;;8.00;6.53;;;9.20;33.90;;;;;;5060813;28;20447;-86
2024/02/10 04:28:28;;;;;;;11.77;6.60;;;9.20;32.30;;;;;;5059553;28;21034;-87
2024/02/10 04:30:55;;;;;;;9.40;6.00;;;9.20;31.30;;;;;;5061172;28;20796;-86
2024/02/10 04:33:20;;;;;;;9.97;5.60;;;9.30;29.10;;;;;;5055625;28;20887;-86
2024/02/10 04:35:46;;;;;;;8.83;7.07;;;9.20;27.90;;;;;;5058159;28;20464;-85
2024/02/10 04:38:13;;;;;;;12.27;6.47;;;9.20;34.10;;;;;;5056658;28;21019;-87
2024/02/10 04:40:39;;;;;;;5.90;5.30;;;9.10;38.60;;;;;;5052331;28;21143;-85
2024/02/10 04:43:05;;;;;;;8.27;6.13;;;9.10;41.70;;;;;;5061959;28;20471;-86
2024/02/10 04:45:32;;;;;;;7.30;5.77;;;9.10;41.50;;;;;;5054258;28;20467;-86
2024/02/10 04:48:00;;;;;;;8.90;7.17;;;9.00;43.30;;;;;;5059576;28;20471;-86
2024/02/10 04:50:28;;;;;;;10.50;6.13;;;9.00;47.00;;;;;;5062930;28;21142;-86
2024/02/10 04:52:57;;;;;;;12.93;6.37;;;8.90;55.80;;;;;;5061097;28;20484;-86
2024/02/10 04:55:24;;;;;;;10.70;5.90;;;8.90;61.30;;;;;;5062342;28;20534;-86
2024/02/10 04:57:53;;;;;;;12.67;6.90;;;8.90;75.00;;;;;;5064191;28;20550;-86
2024/02/10 05:00:20;;;;;;;8.60;6.63;;;8.80;80.40;;;;;;5054624;28;20480;-86
2024/02/10 05:02:51;;;;;;;15.03;7.77;;;8.80;80.80;;;;;;5056990;28;20447;-87
2024/02/10 05:05:18;;;;;;;8.23;6.50;;;8.80;82.70;;;;;;5055397;28;20911;-86
2024/02/10 05:07:56;;;;;;;10.97;7.40;;;8.80;84.00;;;;;;5056144;28;20533;-86
2024/02/10 05:10:23;;;;;;;13.73;6.70;;;8.70;87.20;;;;;;5052406;28;20444;-85
2024/02/10 05:12:50;;;;;;;11.33;7.30;;;8.70;89.90;;;;;;5062783;28;21496;-83
2024/02/10 05:15:20;;;;;;;7.83;6.20;;;8.70;90.40;;;;;;5059947;28;20443;-85
2024/02/10 05:17:50;;;;;;;9.93;7.33;;;8.70;91.40;;;;;;5068577;28;20487;-85
2024/02/10 05:20:21;;;;;;;10.17;6.47;;;8.70;93.00;;;;;;5053122;28;20500;-85
2024/02/10 05:22:49;;;;;;;10.17;6.73;;;8.70;93.20;;;;;;5051319;28;20427;-84
2024/02/10 05:25:16;;;;;;;15.40;6.80;;;8.60;93.00;;;;;;5051810;28;23076;-85
2024/02/10 05:27:45;;;;;;;11.93;6.20;;;8.60;94.80;;;;;;5056489;28;20562;-84
2024/02/10 05:30:14;;;;;;;9.30;6.37;;;8.70;95.40;;;;;;5057122;28;20537;-85
2024/02/10 05:32:46;;;;;;;8.37;5.00;;;8.70;94.30;;;;;;5059074;28;20486;-85
2024/02/10 05:35:18;;;;;;;14.60;6.10;;;8.70;96.70;;;;;;5052874;28;20452;-86
2024/02/10 05:37:46;;;;;;;10.20;5.73;;;8.70;96.90;;;;;;5054325;28;20470;-86
2024/02/10 05:40:13;;;;;;;7.40;5.10;;;8.70;95.40;;;;;;5049019;28;21055;-85
2024/02/10 05:42:40;;;;;;;10.33;5.40;;;8.70;96.00;;;;;;5052570;28;20436;-86
2024/02/10 05:45:06;;;;;;;8.30;4.97;;;8.70;95.60;;;;;;5056609;28;20812;-85
2024/02/10 05:47:35;;;;;;;8.83;6.10;;;8.70;94.20;;;;;;5057136;28;20499;-85
2024/02/10 05:50:05;;;;;;;8.27;5.40;;;8.80;93.00;;;;;;5051876;28;20436;-85
2024/02/10 05:52:41;;;;;;;8.50;5.77;;;8.80;92.90;;;;;;5056919;28;20451;-86
2024/02/10 05:55:07;;;;;;;11.33;6.50;;;8.80;90.30;;;;;;5050631;28;20443;-84
2024/02/10 05:57:36;;;;;;;10.60;5.53;;;8.70;90.50;;;;;;5055150;28;20488;-86
2024/02/10 06:00:04;;;;;;;7.33;5.70;;;8.80;90.80;;;;;;5052348;28;20431;-84
2024/02/10 06:02:30;;;;;;;10.47;5.83;;;8.70;88.90;;;;;;5056178;28;20941;-85
2024/02/10 06:04:57;;;;;;;10.73;5.63;;;8.80;90.10;;;;;;5051725;28;20445;-84
2024/02/10 06:07:25;;;;;;;6.37;5.30;;;8.80;86.40;;;;;;5053277;28;20244;-85
2024/02/10 06:09:51;;;;;;;9.10;5.20;;;8.80;87.10;;;;;;5047071;28;20949;-87
2024/02/10 06:12:16;;;;;;;6.63;4.53;;;8.80;86.00;;;;;;5051879;28;20466;-85
2024/02/10 06:14:43;;;;;;;10.63;4.97;;;8.80;83.40;;;;;;5055773;28;20181;-84
2024/02/10 06:17:11;;;;;;;6.20;5.20;;;8.70;77.00;;;;;;5057226;28;20246;-86
2024/02/10 06:19:38;;;;;;;4.93;4.23;;;8.70;73.00;;;;;;5051358;28;20427;-86
2024/02/10 06:22:06;;;;;;;6.00;4.87;;;8.70;70.50;;;;;;5049432;28;20463;-84
2024/02/10 06:24:35;;;;;;;6.37;4.60;;;8.70;65.40;;;;;;5054920;28;20467;-85
2024/02/10 06:27:01;;;;;;;5.77;4.60;;;8.70;65.50;;;;;;5049869;28;21087;-85
2024/02/10 06:29:26;;;;;;;7.90;4.83;;;8.70;63.60;;;;;;5050958;28;20442;-85
2024/02/10 06:31:52;;;;;;;5.63;4.20;;;8.70;60.90;;;;;;5049138;28;20185;-84
2024/02/10 06:34:17;;;;;;;6.40;5.07;;;8.70;58.90;;;;;;5057530;28;20189;-85
2024/02/10 06:36:47;;;;;;;6.00;4.20;;;8.70;58.90;;;;;;5053896;28;20197;-85
2024/02/10 06:39:13;;;;;;;5.30;4.37;;;8.70;55.90;;;;;;5051598;28;20249;-86
2024/02/10 06:41:42;;;;;;;6.20;3.90;;;8.60;55.90;;;;;;5056218;28;20447;-86
2024/02/10 06:44:09;;;;;;;5.60;3.80;;;8.70;54.50;;;;;;5049844;28;20818;-85
2024/02/10 06:46:34;;;;;;;4.83;2.97;;;8.70;50.80;;;;;;5054836;28;20991;-86
2024/02/10 06:49:00;;;;;;;4.63;3.60;;;8.70;51.10;;;;;;5056709;28;20490;-85
2024/02/10 06:51:26;;;;;;;4.20;3.13;;;8.70;48.70;;;;;;5055945;28;20176;-84
2024/02/10 06:53:51;;;;;;;4.87;3.90;;;8.80;43.80;;;;;;5061557;28;20213;-86
2024/02/10 06:56:18;;;;;;;6.07;4.10;;;8.80;43.20;;;;;;5056800;28;20264;-86
2024/02/10 06:58:43;;;;;;;7.83;3.90;;;8.80;42.90;;;;;;5057562;28;20244;-84
2024/02/10 07:01:12;;;;;;;5.30;3.40;;;8.90;39.80;;;;;;5056671;28;20474;-85
2024/02/10 07:03:37;;;;;;;5.53;3.43;;;9.00;33.10;;;;;;5047557;28;20181;-84
2024/02/10 07:06:03;;;;;;;5.00;3.23;;;9.10;29.50;;;;;;5059197;28;20435;-84
2024/02/10 07:08:29;;;;;;;6.30;3.73;;;9.20;21.60;;;;;;5061597;28;20704;-85
2024/02/10 07:10:55;;;;;;;4.50;4.10;;;9.30;11.90;;;;;;5063981;28;20210;-84
2024/02/10 07:13:20;;;;;;;18.87;15.90;;;9.40;1.50;;;;;;5061483;28;20276;-85
2024/02/10 07:15:46;;;;;;;5.77;4.17;;;9.40;1.00;;;;;;5056825;28;20189;-84
2024/02/10 07:18:11;;;;;;;10.30;4.47;;;9.50;1.00;;;;;;5054985;28;20234;-84
2024/02/10 07:20:37;;;;;;;5.73;4.20;;;9.50;1.00;;;;;;5058910;28;20308;-84
2024/02/10 07:23:03;;;;;;;5.10;4.40;;;9.60;1.00;;;;;;5054241;28;20205;-84
2024/02/10 07:25:32;;;;;;;6.87;4.67;;;9.70;1.00;;;;;;5059157;28;20199;-84
2024/02/10 07:28:01;;;;;;;4.53;4.00;;;9.70;1.00;;;;;;5053499;28;20885;-84
2024/02/10 07:30:31;;;;;;;4.50;3.80;;;9.80;1.00;;;;;;5058523;28;20470;-85
2024/02/10 07:33:08;;;;;;;6.73;4.67;;;9.80;1.00;;;;;;5055121;28;20499;-84
2024/02/10 07:35:34;;;;;;;4.43;3.50;;;9.80;1.00;;;;;;5060537;28;20431;-84
2024/02/10 07:38:00;;;;;;;7.23;4.87;;;9.80;1.00;;;;;;5051335;28;20503;-85
2024/02/10 07:40:26;;;;;;;6.97;3.50;;;9.80;1.00;;;;;;5055504;28;20431;-85
2024/02/10 07:42:52;;;;;;;5.90;4.10;;;9.90;1.00;;;;;;5053924;28;20469;-84
2024/02/10 07:45:18;;;;;;;5.63;2.87;;;9.90;1.00;;;;;;5052535;28;20181;-85
2024/02/10 07:47:46;;;;;;;3.30;2.90;;;10.00;1.00;;;;;;5055183;28;20711;-84
2024/02/10 07:50:14;;;;;;;4.10;3.13;;;10.00;1.00;;;;;;5052916;28;20846;-85
2024/02/10 07:52:42;;;;;;;8.03;4.07;;;10.00;1.00;;;;;;5059178;28;20435;-84
2024/02/10 07:55:12;;;;;;;15.20;3.50;;;10.00;1.00;;;;;;5056169;28;20503;-85
2024/02/10 07:57:39;;;;;;;5.20;3.40;;;10.10;1.00;;;;;;5052351;28;20470;-85
2024/02/10 08:00:09;;;;;;;7.00;3.00;;;10.10;1.00;;;;;;5059533;28;20446;-85
2024/02/10 08:02:35;;;;;;;4.47;3.20;;;10.20;1.00;;;;;;5052947;28;20506;-83
2024/02/10 08:05:01;;;;;;;4.50;3.27;;;10.20;1.00;;;;;;5058607;28;21105;-85
2024/02/10 08:07:30;;;;;;;4.90;3.60;;;10.30;1.00;;;;;;5062840;28;20690;-85
2024/02/10 08:09:57;;;;;;;4.87;2.60;;;10.40;1.00;;;;;;5066985;28;20944;-86
2024/02/10 08:12:23;;;;;;;4.07;2.53;;;10.40;1.00;;;;;;5064695;28;20451;-84
2024/02/10 08:14:50;;;;;;;4.00;3.13;;;10.50;1.00;;;;;;5055538;28;20427;-84
2024/02/10 08:17:16;;;;;;;3.90;2.80;;;10.60;1.00;;;;;;5061433;28;20666;-84
2024/02/10 08:19:42;;;;;;;7.87;2.90;;;10.70;1.00;;;;;;5057884;28;20442;-84
2024/02/10 08:22:09;;;;;;;5.90;3.00;;;10.80;1.00;;;;;;5038238;28;20929;-84
2024/02/10 08:24:35;;;;;;;4.20;3.20;;;11.10;1.00;;;;;;5058466;28;20203;-84
2024/02/10 08:27:01;;;;;;;6.37;2.90;;;11.40;1.00;;;;;;5055428;28;20955;-84
2024/02/10 08:29:33;;;;;;;5.57;3.20;;;11.80;1.00;;;;;;5050671;28;21034;-86
2024/02/10 08:32:02;;;;;;;3.93;3.20;;;13.10;99.90;;;;;;5056824;28;20444;-85
2024/02/10 08:34:31;;;;;;;3.60;2.53;;;14.30;99.90;;;;;;5048905;28;20471;-85
2024/02/10 08:36:57;;;;;;;3.73;2.60;;;15.40;1.00;;;;;;5054860;28;20439;-84
2024/02/10 08:39:23;;;;;;;4.80;2.53;;;16.40;1.00;;;;;;5058096;28;20449;-85
2024/02/10 08:41:49;;;;;;;5.90;2.20;;;17.00;92.90;;;;;;5054999;28;20793;-85
2024/02/10 08:44:14;;;;;;;3.93;2.77;;;17.70;1.00;;;;;;5051167;28;20201;-84
2024/02/10 08:46:42;;;;;;;3.43;2.37;;;17.70;1.00;;;;;;5059105;28;20185;-85
2024/02/10 08:49:11;;;;;;;2.93;2.60;;;18.00;1.00;;;;;;5062924;28;20302;-85
2024/02/10 08:51:37;;;;;;;3.00;2.50;;;18.60;1.00;;;;;;5059722;28;20481;-85
2024/02/10 08:54:03;;;;;;;4.40;2.83;;;18.40;1.00;;;;;;5053340;28;20441;-85
2024/02/10 08:56:33;;;;;;;2.50;2.30;;;18.20;1.00;;;;;;5059384;28;20173;-85
2024/02/10 08:58:59;;;;;;;4.00;2.03;;;18.30;1.00;;;;;;5052229;28;20955;-85
2024/02/10 09:01:25;;;;;;;2.60;2.30;;;18.40;1.00;;;;;;5055748;28;20488;-85
2024/02/10 09:03:53;;;;;;;4.10;2.60;;;18.40;1.00;;;;;;5054680;28;20173;-84
2024/02/10 09:06:21;;;;;;;4.60;2.97;;;19.10;1.00;;;;;;5058412;28;20450;-85
2024/02/10 09:08:52;;;;;;;4.60;3.00;;;19.10;1.00;;;;;;5058151;28;20567;-85
2024/02/10 09:11:18;;;;;;;2.40;2.20;;;19.60;1.00;;;;;;5057343;28;21018;-84
2024/02/10 09:13:45;;;;;;;3.10;2.57;;;19.90;1.00;;;;;;5058189;28;20470;-85
2024/02/10 09:16:12;;;;;;;3.13;2.50;;;20.40;1.00;;;;;;5055545;28;20242;-85
2024/02/10 09:18:41;;;;;;;4.60;2.87;;;21.30;1.00;;;;;;5051980;28;20510;-85
2024/02/10 09:21:06;;;;;;;2.73;2.30;;;21.20;1.00;;;;;;5055700;28;20578;-84
2024/02/10 09:23:32;;;;;;;3.20;2.60;;;20.90;99.90;;;;;;5052477;28;20521;-85
2024/02/10 09:25:58;;;;;;;3.27;2.50;;;21.20;99.90;;;;;;5049882;28;20208;-85
2024/02/10 09:28:29;;;;;;;9.03;6.67;;;21.10;99.90;;;;;;5053827;28;20252;-85
2024/02/10 09:30:55;;;;;;;2.43;2.20;;;21.40;99.90;;;;;;5057513;28;20515;-84
2024/02/10 09:33:21;;;;;;;3.33;2.60;;;21.50;99.90;;;;;;5056184;28;20447;-85
2024/02/10 09:35:48;;;;;;;6.90;6.03;;;21.60;99.90;;;;;;5054953;28;20447;-85
2024/02/10 09:38:15;;;;;;;5.37;3.23;;;21.60;99.90;;;;;;5053712;28;20935;-85
2024/02/10 09:40:42;;;;;;;3.30;2.67;;;22.20;99.90;;;;;;5055481;28;20458;-84
2024/02/10 09:43:09;;;;;;;3.20;2.63;;;21.40;99.90;;;;;;5056105;28;20519;-85
2024/02/10 09:45:41;;;;;;;3.53;2.30;;;21.50;99.90;;;;;;5055688;28;20466;-84
2024/02/10 09:48:08;;;;;;;2.80;1.87;;;22.60;99.90;;;;;;5057871;28;20451;-87
2024/02/10 09:50:34;;;;;;;3.13;2.10;;;22.00;99.90;;;;;;5051215;28;20561;-84
2024/02/10 09:53:00;;;;;;;3.00;1.83;;;21.60;99.90;;;;;;5051023;28;21012;-84
2024/02/10 09:55:26;;;;;;;2.80;1.90;;;22.30;99.90;;;;;;5053989;28;20432;-85
2024/02/10 09:57:54;;;;;;;2.80;2.20;;;21.80;99.90;;;;;;5048505;28;20472;-84
2024/02/10 10:00:20;;;;;;;2.80;2.13;;;21.60;99.90;;;;;;5059239;28;20556;-84
2024/02/10 10:02:49;;;;;;;3.33;2.43;;;21.70;99.90;;;;;;5067039;28;20435;-84
2024/02/10 10:05:20;;;;;;;2.60;2.40;;;21.50;99.90;;;;;;5062554;28;20184;-85
2024/02/10 10:07:52;;;;;;;3.00;2.30;;;21.50;99.90;;;;;;5067458;28;20979;-83
2024/02/10 10:10:19;;;;;;;6.37;2.13;;;20.60;99.90;;;;;;5067367;28;20923;-85
2024/02/10 10:12:45;;;;;;;2.50;2.30;;;20.80;99.90;;;;;;5067106;28;20430;-85
2024/02/10 10:15:11;;;;;;;4.07;2.33;;;20.10;99.90;;;;;;5067008;28;20488;-85
2024/02/10 10:17:37;;;;;;;3.17;2.30;;;20.50;99.90;;;;;;5066428;28;20238;-85
2024/02/10 10:20:09;;;;;;;2.50;2.10;;;20.10;99.90;;;;;;5066088;28;20778;-85
2024/02/10 10:22:36;;;;;;;3.03;2.43;;;19.90;99.90;;;;;;5066977;28;20454;-84
2024/02/10 10:25:02;;;;;;;4.23;2.63;;;19.40;99.90;;;;;;5074024;28;20418;-84
2024/02/10 10:27:29;;;;;;;3.40;2.53;;;19.20;99.90;;;;;;5069103;28;20488;-85
2024/02/10 10:29:55;;;;;;;4.17;2.83;;;18.90;99.90;;;;;;5071442;28;20466;-85
2024/02/10 10:32:22;;;;;;;5.93;2.50;;;18.70;99.90;;;;;;5070721;28;20865;-84
2024/02/10 10:34:48;;;;;;;5.90;2.97;;;18.40;99.90;;;;;;5070928;28;20254;-83
2024/02/10 10:37:16;;;;;;;3.33;2.93;;;18.10;99.90;;;;;;5075781;28;21018;-81
2024/02/10 10:39:45;;;;;;;3.80;2.57;;;18.20;99.90;;;;;;5066775;28;20492;-86
2024/02/10 10:42:13;;;;;;;3.40;2.40;;;18.00;99.90;;;;;;5071533;28;20854;-83
2024/02/10 10:44:39;;;;;;;6.00;2.47;;;17.70;99.90;;;;;;5067710;28;20434;-84
2024/02/10 10:47:07;;;;;;;3.30;2.40;;;17.50;1.00;;;;;;5070434;28;20433;-85
2024/02/10 10:49:32;;;;;;;5.00;2.80;;;17.20;1.00;;;;;;5073746;28;20427;-84
2024/02/10 10:52:03;;;;;;;3.37;3.00;;;16.80;1.00;;;;;;5074978;28;20439;-84
2024/02/10 10:54:33;;;;;;;3.70;2.70;;;16.70;1.00;;;;;;5070235;28;20236;-85
2024/02/10 10:57:02;;;;;;;3.97;3.17;;;16.80;1.00;;;;;;5070796;28;20810;-84
2024/02/10 10:59:35;;;;;;;4.30;3.20;;;16.50;1.00;;;;;;5068257;28;20487;-84
2024/02/10 11:02:06;;;;;;;4.07;2.80;;;16.30;1.00;;;;;;5076290;28;20468;-85
2024/02/10 11:04:33;;;;;;;3.80;2.63;;;16.20;1.00;;;;;;5070596;28;20432;-85
2024/02/10 11:07:09;;;;;;;3.60;2.60;;;16.30;1.00;;;;;;5073676;28;20511;-82
2024/02/10 11:09:51;;;;;;;3.70;2.43;;;16.20;1.00;;;;;;5075871;28;20418;-84
2024/02/10 11:12:18;;;;;;;3.57;2.90;;;16.00;1.00;;;;;;5068314;28;20963;-83
2024/02/10 11:14:54;;;;;;;4.50;2.57;;;16.00;9.70;;;;;;5072672;28;21134;-84
2024/02/10 11:17:20;;;;;;;3.53;2.80;;;15.90;99.90;;;;;;5075053;28;20548;-84
2024/02/10 11:20:04;;;;;;;5.13;3.40;;;16.00;99.90;;;;;;5074220;28;20525;-82
2024/02/10 11:22:45;;;;;;;3.70;2.83;;;15.80;99.90;;;;;;5074133;28;20422;-85
2024/02/10 11:25:14;;;;;;;2.73;2.53;;;15.90;99.90;;;;;;5066747;28;20915;-84
2024/02/10 11:27:43;;;;;;;4.27;3.67;;;15.60;99.90;;;;;;5071459;28;20474;-83
2024/02/10 11:30:09;;;;;;;7.53;3.60;;;15.70;99.90;;;;;;5068502;28;20429;-85
2024/02/10 11:32:34;;;;;;;5.20;3.30;;;15.60;99.90;;;;;;5070922;28;20444;-82
2024/02/10 11:35:00;;;;;;;6.37;3.13;;;15.60;1.00;;;;;;5070148;28;20962;-84
2024/02/10 11:37:30;;;;;;;3.67;3.27;;;15.40;1.00;;;;;;5071645;28;20216;-83
2024/02/10 11:39:59;;;;;;;4.10;2.60;;;15.20;1.00;;;;;;5070917;28;20433;-84
2024/02/10 11:42:27;;;;;;;3.40;3.00;;;15.30;1.00;;;;;;5073754;28;20457;-83
2024/02/10 11:44:53;;;;;;;3.83;3.00;;;15.40;1.00;;;;;;5059274;28;20446;-84
2024/02/10 11:47:19;;;;;;;3.10;2.80;;;15.30;1.00;;;;;;5072859;28;20476;-84
2024/02/10 11:49:45;;;;;;;3.73;3.30;;;15.40;28.50;;;;;;5072610;28;20449;-84
2024/02/10 11:52:11;;;;;;;4.50;3.60;;;15.30;1.00;;;;;;5072719;28;20213;-83
2024/02/10 11:54:37;;;;;;;5.30;3.30;;;15.50;1.00;;;;;;5074102;28;20470;-84
2024/02/10 11:57:07;;;;;;;4.60;3.70;;;15.60;1.00;;;;;;5072335;28;20628;-84
2024/02/10 11:59:36;;;;;;;5.63;4.23;;;15.70;1.00;;;;;;5072368;28;20433;-84
2024/02/10 12:02:02;;;;;;;3.13;2.83;;;15.80;1.00;;;;;;5070253;28;20442;-84
2024/02/10 12:04:29;;;;;;;7.60;5.30;;;15.70;99.90;;;;;;5072447;28;20947;-84
2024/02/10 12:06:56;;;;;;;5.50;3.37;;;15.80;99.90;;;;;;5073862;28;20446;-84
2024/02/10 12:09:21;;;;;;;5.83;3.10;;;15.60;99.90;;;;;;5072580;28;20438;-84
2024/02/10 12:11:59;;;;;;;5.07;3.23;;;15.70;99.90;;;;;;5071618;28;20437;-85
2024/02/10 12:14:27;;;;;;;3.43;2.60;;;16.00;99.90;;;;;;5062587;28;20667;-84
2024/02/10 12:17:02;;;;;;;4.70;3.00;;;15.90;99.90;;;;;;5071724;28;20438;-84
2024/02/10 12:19:27;;;;;;;3.23;2.47;;;16.10;99.90;;;;;;5072262;28;20528;-84
2024/02/10 12:21:54;;;;;;;4.47;2.60;;;16.20;99.90;;;;;;5073651;28;20592;-83
2024/02/10 12:24:22;;;;;;;4.33;2.87;;;16.30;99.90;;;;;;5072753;28;20188;-83
2024/02/10 12:26:48;;;;;;;2.40;2.00;;;16.20;99.90;;;;;;5072482;28;20441;-83
2024/02/10 12:29:14;;;;;;;5.07;2.80;;;16.20;92.70;;;;;;5072115;28;20490;-84
2024/02/10 12:31:40;;;;;;;2.30;2.10;;;16.00;50.00;;;;;;5072559;28;20188;-84
2024/02/10 12:34:08;;;;;;;2.57;2.00;;;16.00;99.90;;;;;;5072385;28;20267;-84
2024/02/10 12:36:35;;;;;;;2.77;1.90;;;16.10;46.90;;;;;;5075223;28;20458;-84
2024/02/10 12:39:00;;;;;;;4.23;1.80;;;16.10;25.50;;;;;;5072825;28;20891;-84
2024/02/10 12:41:26;;;;;;;1.90;1.73;;;16.20;14.50;;;;;;5071282;28;20466;-84
2024/02/10 12:43:53;;;;;;;3.30;1.73;;;15.90;18.00;;;;;;5071808;28;20642;-84
2024/02/10 12:46:19;;;;;;;5.73;2.20;;;15.90;91.50;;;;;;5071592;28;20246;-84
2024/02/10 12:48:44;;;;;;;2.60;1.93;;;16.00;99.90;;;;;;5073302;28;20469;-84